DAL1458 KATL-KPBI
Flight info
| Callsign | DAL1458 |
|---|---|
| Flight time | N/A |
| Altitude | 35000 |
| Route | SMLTZ3 WALET ZPLEN VUUDU1 |
| Aircraft | A321/M-SDE3FGHIRWY/LB1 |
Departure
| Time | 2026-05-06 20:43 |
|---|---|
| Airport | Hartsfield Jackson Atlanta International Airport (KATL) |
Arrival
| Time | N/A |
|---|---|
| Airport | Palm Beach International Airport (KPBI) |
| Time | Latitude | Longitude | Altitude | Speed | Heading |
|---|---|---|---|---|---|
| 2026-05-06 20:20 | 33.63923 | -84.44194 | 1034 ft | 0 kts | 270° |
| 2026-05-06 20:25 | 33.63923 | -84.44192 | 1006 ft | 2 kts | 270° |
| 2026-05-06 20:25 | 33.63923 | -84.44164 | 1006 ft | 4 kts | 263° |
| 2026-05-06 20:25 | 33.63931 | -84.44134 | 1006 ft | 4 kts | 232° |
| 2026-05-06 20:26 | 33.63950 | -84.44116 | 1006 ft | 4 kts | 188° |
| 2026-05-06 20:26 | 33.63961 | -84.44115 | 1006 ft | 1 kts | 180° |
| 2026-05-06 20:32 | 33.63948 | -84.44115 | 1006 ft | 7 kts | 180° |
| 2026-05-06 20:32 | 33.63881 | -84.44115 | 1006 ft | 10 kts | 180° |
| 2026-05-06 20:32 | 33.63813 | -84.44114 | 1006 ft | 9 kts | 180° |
| 2026-05-06 20:33 | 33.63750 | -84.44113 | 1006 ft | 9 kts | 182° |
| 2026-05-06 20:33 | 33.63695 | -84.44109 | 1007 ft | 8 kts | 158° |
| 2026-05-06 20:33 | 33.63665 | -84.44050 | 1007 ft | 11 kts | 103° |
| 2026-05-06 20:33 | 33.63663 | -84.43948 | 1006 ft | 12 kts | 90° |
| 2026-05-06 20:34 | 33.63664 | -84.43856 | 1006 ft | 10 kts | 89° |
| 2026-05-06 20:34 | 33.63666 | -84.43775 | 1006 ft | 9 kts | 87° |
| 2026-05-06 20:34 | 33.63666 | -84.43707 | 1006 ft | 7 kts | 90° |
| 2026-05-06 20:34 | 33.63665 | -84.43651 | 1006 ft | 7 kts | 91° |
| 2026-05-06 20:35 | 33.63664 | -84.43588 | 1006 ft | 8 kts | 91° |
| 2026-05-06 20:35 | 33.63664 | -84.43527 | 1006 ft | 8 kts | 91° |
| 2026-05-06 20:35 | 33.63663 | -84.43429 | 1006 ft | 17 kts | 89° |
| 2026-05-06 20:35 | 33.63665 | -84.43287 | 1006 ft | 17 kts | 91° |
| 2026-05-06 20:36 | 33.63664 | -84.43152 | 1006 ft | 15 kts | 89° |
| 2026-05-06 20:36 | 33.63666 | -84.43030 | 1006 ft | 14 kts | 90° |
| 2026-05-06 20:36 | 33.63666 | -84.42954 | 1006 ft | 13 kts | 90° |
| 2026-05-06 20:36 | 33.63665 | -84.42822 | 1006 ft | 11 kts | 90° |
| 2026-05-06 20:37 | 33.63657 | -84.42703 | 1007 ft | 17 kts | 94° |
| 2026-05-06 20:37 | 33.63656 | -84.42549 | 1007 ft | 20 kts | 90° |
| 2026-05-06 20:37 | 33.63655 | -84.42383 | 1007 ft | 19 kts | 90° |
| 2026-05-06 20:37 | 33.63653 | -84.42210 | 1007 ft | 21 kts | 100° |
| 2026-05-06 20:38 | 33.63591 | -84.42061 | 1007 ft | 19 kts | 112° |
| 2026-05-06 20:38 | 33.63582 | -84.41957 | 1006 ft | 19 kts | 89° |
| 2026-05-06 20:38 | 33.63582 | -84.41755 | 1006 ft | 17 kts | 90° |
| 2026-05-06 20:38 | 33.63581 | -84.41594 | 1006 ft | 23 kts | 89° |
| 2026-05-06 20:39 | 33.63581 | -84.41402 | 1005 ft | 22 kts | 89° |
| 2026-05-06 20:39 | 33.63582 | -84.41280 | 1006 ft | 21 kts | 90° |
| 2026-05-06 20:39 | 33.63581 | -84.41054 | 1006 ft | 19 kts | 90° |
| 2026-05-06 20:39 | 33.63580 | -84.40950 | 1006 ft | 15 kts | 94° |
| 2026-05-06 20:40 | 33.63562 | -84.40835 | 1007 ft | 9 kts | 139° |
| 2026-05-06 20:40 | 33.63523 | -84.40824 | 1007 ft | 8 kts | 174° |
| 2026-05-06 20:40 | 33.63473 | -84.40833 | 1007 ft | 6 kts | 221° |
| 2026-05-06 20:40 | 33.63472 | -84.40842 | 1007 ft | 0 kts | 267° |
| 2026-05-06 20:42 | 33.63472 | -84.40843 | 1007 ft | 1 kts | 267° |
| 2026-05-06 20:42 | 33.63471 | -84.40984 | 1007 ft | 47 kts | 269° |
| 2026-05-06 20:42 | 33.63470 | -84.41638 | 1005 ft | 109 kts | 270° |
| 2026-05-06 20:42 | 33.63469 | -84.42750 | 1007 ft | 156 kts | 271° |
| 2026-05-06 20:43 | 33.63472 | -84.44143 | 1391 ft | 165 kts | 267° |
| 2026-05-06 20:43 | 33.63465 | -84.45498 | 2138 ft | 161 kts | 264° |
| 2026-05-06 20:43 | 33.63458 | -84.46844 | 2724 ft | 163 kts | 264° |
| 2026-05-06 20:43 | 33.63459 | -84.48284 | 2984 ft | 182 kts | 265° |
| 2026-05-06 20:44 | 33.63449 | -84.49874 | 3220 ft | 200 kts | 264° |
| 2026-05-06 20:44 | 33.63432 | -84.51630 | 3408 ft | 224 kts | 264° |
| 2026-05-06 20:44 | 33.63411 | -84.53572 | 3881 ft | 238 kts | 266° |
| 2026-05-06 20:44 | 33.63406 | -84.55563 | 4550 ft | 246 kts | 267° |
| 2026-05-06 20:45 | 33.63416 | -84.57644 | 5289 ft | 250 kts | 268° |
| 2026-05-06 20:45 | 33.63429 | -84.59734 | 6141 ft | 251 kts | 268° |
| 2026-05-06 20:45 | 33.63440 | -84.61834 | 6929 ft | 253 kts | 268° |
| 2026-05-06 20:45 | 33.63293 | -84.63926 | 7704 ft | 253 kts | 254° |
| 2026-05-06 20:46 | 33.62551 | -84.65828 | 8430 ft | 256 kts | 235° |
| 2026-05-06 20:46 | 33.61244 | -84.67301 | 9180 ft | 263 kts | 216° |
| 2026-05-06 20:46 | 33.59652 | -84.68399 | 9960 ft | 265 kts | 215° |
| 2026-05-06 20:46 | 33.57943 | -84.69235 | 10591 ft | 275 kts | 199° |
| 2026-05-06 20:47 | 33.55991 | -84.69430 | 11225 ft | 288 kts | 182° |
| 2026-05-06 20:47 | 33.53976 | -84.69073 | 11885 ft | 294 kts | 178° |
| 2026-05-06 20:47 | 33.51945 | -84.68681 | 12535 ft | 297 kts | 179° |
| 2026-05-06 20:47 | 33.49903 | -84.68289 | 13184 ft | 299 kts | 179° |
| 2026-05-06 20:48 | 33.47833 | -84.67895 | 13815 ft | 303 kts | 179° |
| 2026-05-06 20:48 | 33.45747 | -84.67500 | 14380 ft | 305 kts | 179° |
| 2026-05-06 20:48 | 33.43664 | -84.67018 | 14948 ft | 314 kts | 171° |
| 2026-05-06 20:48 | 33.41620 | -84.65954 | 15461 ft | 330 kts | 157° |
| 2026-05-06 20:49 | 33.39722 | -84.64186 | 15603 ft | 359 kts | 142° |
| 2026-05-06 20:49 | 33.37898 | -84.62023 | 15730 ft | 378 kts | 142° |
| 2026-05-06 20:49 | 33.36002 | -84.59764 | 15973 ft | 390 kts | 141° |
| 2026-05-06 20:49 | 33.34061 | -84.57446 | 16440 ft | 396 kts | 141° |
| 2026-05-06 20:50 | 33.32100 | -84.55108 | 16966 ft | 400 kts | 142° |